紙飛行機!!

LUXURY FLIGHT

03-6423-7371

羽田本店:東京都大田区羽田5-11-1
営業時間:10:00~20:00
定休日:毎週 月曜日
セントレア店:愛知県常滑市セントレア1-1
営業時間:10:00~20:00 年中無休

lv

紙飛行機!!

STAFF BLOG

2019/08/16 紙飛行機!!

おはようございます

 

昨日は台風の影響で、FLIGHT OF DREAMSは13:00で閉館しました。

 

昨日ご予約頂いておりました、お客様のご協力も頂き、激しい気象条件の中

 

大きな混乱もなく、無事営業を終了する事が出来ました。

 

昨日ご予約のお客様、本当にご協力ありがとうございました。

 

 

本日のセントレアの天候は、概ね良好ですが、少々風は強いですね。

 

こんな台風の通過後のメターは・・・・

 

RJGG 160000Z 19014KT 9999 FEW020 BKN/// 30/26 Q0997 NOSIG

 

ふむふむ・・・・

 

ちなみに羽田のメターはと言いますと・・・

 

RJTT 160000Z 20026KT 8000 -SHRA SCT015 BKN170 29/25 Q0998 TEMPO 20026G36KT

 

風は強いですね。

 

台風は、通過したからといって気は抜けない。よく言いますね。

 

本日お仕事のお方も、お休みのお方も、お出かけの際はお気をつけくださーーい

 

さてさて、表題の紙飛行機ですが、

 

実は、以前羽田にお越しいただいた神戸からお越しのO様ご一家ですが、

 

一昨日は、セントレアにも遊びにお越しくださいました

 

当時からパイロットになりたいとの思いは変わらずに、パイロットを目指すに

 

相応しい進路も取られておりました

 

素晴らしいですね

 

実際、当日は満席のためご予約対応が取れず、シミュレーターの体験は出来ませんでしたが

 

今後に向けての熱い話で盛り上がりました

 

そこで・・・・

 

当店が所在するFLIGHT OF DREAMSには、紙飛行機を作って飛ばすコンテンツが

 

ありますが、そこで作られた紙飛行機が、形がかっこよく、しかも飛ぶ飛ぶ

 

よく聞けば、折り紙による紙飛行機の協会があって、そこで学んで折れるようになったとか!!

 

更には、紙飛行機の大会では、「1位」になった経験があると・・・・・

 

どうりで、飛ぶはずです

 

その、貴重な紙飛行機を、いただいてしまいましたぁぁぁぁ

 

img_3657

 

見た目もかっこいいんですよ

 

img_3658

 

普通には作れないレベルですよね

 

また、ご帰宅後にご本人様とお母様からそれぞれ心温まるメールまで頂戴し・・・・

 

本当に温かいご家族

 

きっと、将来はパイロットになるのでしょう

 

これからが大変になるとは思いますが、ご家族皆で頑張ってください

 

それでは、冬休みのご予約とご来店、心より楽しみに致しております。

 

日々の勉強も頑張ってくださーーーーい!!

 

ありがとうございました。

 

 

「感謝」

 

 

 

 

TOP